BAW448 EGLL-LEIB
Flight info
| Callsign | BAW448 |
|---|---|
| Flight time | 2h 9m |
| Altitude | 27000 |
| Route | MAXIT Y803 MID L151 SITET UN859 LGL/N0454F350 UN859 SOPIL DCT BALAN DCT EVPOK DCT NARAK DCT GAI DCT LOMRA DCT ROCAN/N0459F310 DCT PUMAL N859 BCN Z174 CORDA |
| Aircraft | A320/M-SDE3FGHIRWY/LB1 |
Departure
| Time | 2026-05-03 21:51 |
|---|---|
| Airport | London Heathrow Airport (EGLL) |
Arrival
| Time | 2026-05-04 00:00 |
|---|---|
| Airport | Ibiza Airport (LEIB) |
| Time | Latitude | Longitude | Altitude | Speed | Heading |
|---|---|---|---|---|---|
| 2026-05-03 21:21 | 51.46994 | -0.48618 | 91 ft | 0 kts | 269° |
| 2026-05-03 21:21 | 51.46994 | -0.48610 | 86 ft | 0 kts | 270° |
| 2026-05-03 21:39 | 51.46994 | -0.48588 | 90 ft | 4 kts | 270° |
| 2026-05-03 21:39 | 51.46994 | -0.48545 | 88 ft | 4 kts | 270° |
| 2026-05-03 21:40 | 51.46994 | -0.48510 | 86 ft | 4 kts | 261° |
| 2026-05-03 21:40 | 51.47004 | -0.48477 | 89 ft | 4 kts | 205° |
| 2026-05-03 21:40 | 51.47028 | -0.48471 | 89 ft | 4 kts | 180° |
| 2026-05-03 21:40 | 51.47034 | -0.48471 | 89 ft | 0 kts | 180° |
| 2026-05-03 21:42 | 51.47033 | -0.48471 | 89 ft | 0 kts | 180° |
| 2026-05-03 21:42 | 51.47016 | -0.48470 | 90 ft | 5 kts | 178° |
| 2026-05-03 21:42 | 51.46970 | -0.48470 | 88 ft | 9 kts | 179° |
| 2026-05-03 21:42 | 51.46900 | -0.48469 | 87 ft | 10 kts | 180° |
| 2026-05-03 21:43 | 51.46823 | -0.48468 | 86 ft | 13 kts | 179° |
| 2026-05-03 21:43 | 51.46708 | -0.48466 | 86 ft | 17 kts | 180° |
| 2026-05-03 21:43 | 51.46651 | -0.48347 | 86 ft | 16 kts | 90° |
| 2026-05-03 21:43 | 51.46654 | -0.48189 | 86 ft | 11 kts | 88° |
| 2026-05-03 21:44 | 51.46654 | -0.48055 | 86 ft | 13 kts | 90° |
| 2026-05-03 21:44 | 51.46654 | -0.47904 | 86 ft | 14 kts | 89° |
| 2026-05-03 21:44 | 51.46654 | -0.47722 | 86 ft | 18 kts | 90° |
| 2026-05-03 21:44 | 51.46655 | -0.47530 | 86 ft | 12 kts | 89° |
| 2026-05-03 21:45 | 51.46655 | -0.47408 | 86 ft | 11 kts | 90° |
| 2026-05-03 21:45 | 51.46656 | -0.47276 | 86 ft | 13 kts | 90° |
| 2026-05-03 21:45 | 51.46656 | -0.47121 | 89 ft | 10 kts | 90° |
| 2026-05-03 21:45 | 51.46657 | -0.46991 | 90 ft | 13 kts | 90° |
| 2026-05-03 21:46 | 51.46657 | -0.46831 | 88 ft | 16 kts | 86° |
| 2026-05-03 21:46 | 51.46658 | -0.46638 | 90 ft | 19 kts | 90° |
| 2026-05-03 21:46 | 51.46659 | -0.46415 | 90 ft | 20 kts | 91° |
| 2026-05-03 21:46 | 51.46659 | -0.46186 | 90 ft | 22 kts | 89° |
| 2026-05-03 21:47 | 51.46661 | -0.45927 | 86 ft | 24 kts | 89° |
| 2026-05-03 21:47 | 51.46661 | -0.45638 | 86 ft | 27 kts | 90° |
| 2026-05-03 21:47 | 51.46663 | -0.45360 | 86 ft | 24 kts | 89° |
| 2026-05-03 21:47 | 51.46660 | -0.45125 | 86 ft | 16 kts | 89° |
| 2026-05-03 21:48 | 51.46663 | -0.44939 | 86 ft | 18 kts | 89° |
| 2026-05-03 21:48 | 51.46665 | -0.44717 | 86 ft | 22 kts | 90° |
| 2026-05-03 21:48 | 51.46667 | -0.44467 | 86 ft | 22 kts | 90° |
| 2026-05-03 21:48 | 51.46666 | -0.44246 | 86 ft | 21 kts | 89° |
| 2026-05-03 21:49 | 51.46667 | -0.44012 | 86 ft | 22 kts | 89° |
| 2026-05-03 21:49 | 51.46668 | -0.43782 | 86 ft | 18 kts | 90° |
| 2026-05-03 21:49 | 51.46660 | -0.43640 | 89 ft | 11 kts | 126° |
| 2026-05-03 21:49 | 51.46594 | -0.43602 | 86 ft | 11 kts | 181° |
| 2026-05-03 21:50 | 51.46509 | -0.43611 | 86 ft | 13 kts | 201° |
| 2026-05-03 21:50 | 51.46493 | -0.43753 | 86 ft | 26 kts | 270° |
| 2026-05-03 21:50 | 51.46490 | -0.44434 | 88 ft | 93 kts | 270° |
| 2026-05-03 21:50 | 51.46486 | -0.45749 | 90 ft | 142 kts | 270° |
| 2026-05-03 21:51 | 51.46483 | -0.47477 | 387 ft | 157 kts | 267° |
| 2026-05-03 21:51 | 51.46453 | -0.49244 | 927 ft | 161 kts | 267° |
| 2026-05-03 21:51 | 51.46409 | -0.51070 | 1471 ft | 166 kts | 267° |
| 2026-05-03 21:51 | 51.46281 | -0.52985 | 1784 ft | 183 kts | 254° |
| 2026-05-03 21:52 | 51.45713 | -0.54943 | 1971 ft | 207 kts | 241° |
| 2026-05-03 21:52 | 51.44972 | -0.57010 | 2443 ft | 218 kts | 240° |
| 2026-05-03 21:52 | 51.44192 | -0.59184 | 2966 ft | 231 kts | 238° |
| 2026-05-03 21:52 | 51.43075 | -0.61092 | 3482 ft | 243 kts | 209° |
| 2026-05-03 21:53 | 51.41419 | -0.61775 | 3999 ft | 256 kts | 175° |
| 2026-05-03 21:53 | 51.39668 | -0.61069 | 4519 ft | 262 kts | 161° |
| 2026-05-03 21:53 | 51.37935 | -0.60114 | 5027 ft | 265 kts | 161° |
| 2026-05-03 21:53 | 51.36191 | -0.59134 | 5531 ft | 267 kts | 161° |
| 2026-05-03 21:54 | 51.34434 | -0.58149 | 6045 ft | 268 kts | 161° |
| 2026-05-03 21:54 | 51.32669 | -0.57168 | 6551 ft | 269 kts | 162° |
| 2026-05-03 21:54 | 51.30897 | -0.56192 | 7046 ft | 270 kts | 163° |
| 2026-05-03 21:54 | 51.29049 | -0.55615 | 7541 ft | 271 kts | 179° |
| 2026-05-03 21:55 | 51.27191 | -0.55796 | 8044 ft | 272 kts | 187° |
| 2026-05-03 21:55 | 51.25299 | -0.56120 | 8560 ft | 274 kts | 188° |
| 2026-05-03 21:55 | 51.23420 | -0.56684 | 9084 ft | 275 kts | 192° |
| 2026-05-03 21:55 | 51.21536 | -0.57308 | 9616 ft | 277 kts | 192° |
| 2026-05-03 21:56 | 51.19642 | -0.57926 | 10120 ft | 281 kts | 192° |
| 2026-05-03 21:56 | 51.17693 | -0.58557 | 10612 ft | 290 kts | 192° |
| 2026-05-03 21:56 | 51.15683 | -0.59204 | 11111 ft | 299 kts | 192° |
| 2026-05-03 21:56 | 51.13615 | -0.59868 | 11625 ft | 307 kts | 192° |
| 2026-05-03 21:57 | 51.11489 | -0.60549 | 12128 ft | 315 kts | 192° |
| 2026-05-03 21:57 | 51.09317 | -0.61246 | 12655 ft | 322 kts | 192° |
| 2026-05-03 21:57 | 51.07069 | -0.61742 | 13184 ft | 329 kts | 183° |
| 2026-05-03 21:57 | 51.04759 | -0.61543 | 13629 ft | 340 kts | 172° |
| 2026-05-03 21:58 | 51.02437 | -0.60555 | 13992 ft | 350 kts | 160° |
| 2026-05-03 21:58 | 51.00175 | -0.59038 | 14511 ft | 355 kts | 159° |
| 2026-05-03 21:58 | 50.97908 | -0.57526 | 15040 ft | 358 kts | 159° |
| 2026-05-03 21:58 | 50.95605 | -0.56009 | 15578 ft | 360 kts | 159° |
| 2026-05-03 21:59 | 50.93281 | -0.54487 | 16093 ft | 363 kts | 159° |
| 2026-05-03 21:59 | 50.90929 | -0.52948 | 16629 ft | 366 kts | 160° |
| 2026-05-03 21:59 | 50.88570 | -0.51405 | 17165 ft | 369 kts | 160° |
| 2026-05-03 21:59 | 50.86179 | -0.49834 | 17724 ft | 373 kts | 160° |
| 2026-05-03 22:00 | 50.83777 | -0.48257 | 18273 ft | 376 kts | 160° |
| 2026-05-03 22:00 | 50.81346 | -0.46661 | 18781 ft | 378 kts | 160° |
| 2026-05-03 22:00 | 50.78906 | -0.45059 | 19309 ft | 380 kts | 160° |
| 2026-05-03 22:00 | 50.76452 | -0.43451 | 19845 ft | 383 kts | 160° |
| 2026-05-03 22:01 | 50.73989 | -0.41842 | 20378 ft | 385 kts | 160° |
| 2026-05-03 22:01 | 50.71506 | -0.40222 | 20899 ft | 387 kts | 160° |
| 2026-05-03 22:01 | 50.69014 | -0.38597 | 21393 ft | 389 kts | 160° |
| 2026-05-03 22:01 | 50.66502 | -0.36962 | 21865 ft | 391 kts | 161° |
| 2026-05-03 22:02 | 50.63981 | -0.35325 | 22329 ft | 393 kts | 161° |
| 2026-05-03 22:02 | 50.61470 | -0.33695 | 22795 ft | 394 kts | 161° |
| 2026-05-03 22:02 | 50.58932 | -0.32047 | 23243 ft | 396 kts | 161° |
| 2026-05-03 22:02 | 50.56382 | -0.30392 | 23654 ft | 398 kts | 161° |
| 2026-05-03 22:03 | 50.53815 | -0.28729 | 24009 ft | 400 kts | 161° |
| 2026-05-03 22:03 | 50.51230 | -0.27058 | 24360 ft | 401 kts | 161° |
| 2026-05-03 22:03 | 50.48639 | -0.25383 | 24716 ft | 403 kts | 161° |
| 2026-05-03 22:03 | 50.46044 | -0.23710 | 25062 ft | 405 kts | 161° |
| 2026-05-03 22:04 | 50.43436 | -0.22030 | 25396 ft | 406 kts | 161° |
| 2026-05-03 22:04 | 50.40812 | -0.20337 | 25725 ft | 408 kts | 161° |
| 2026-05-03 22:04 | 50.38187 | -0.18645 | 26065 ft | 409 kts | 161° |
| 2026-05-03 22:04 | 50.35579 | -0.16966 | 26404 ft | 410 kts | 162° |
| 2026-05-03 22:05 | 50.32894 | -0.15245 | 26741 ft | 412 kts | 162° |
| 2026-05-03 22:05 | 50.30275 | -0.13573 | 26917 ft | 413 kts | 162° |
| 2026-05-03 22:05 | 50.27618 | -0.11879 | 26946 ft | 413 kts | 162° |
| 2026-05-03 22:05 | 50.24957 | -0.10183 | 26944 ft | 412 kts | 162° |
| 2026-05-03 22:06 | 50.22302 | -0.08485 | 26947 ft | 412 kts | 162° |
| 2026-05-03 22:06 | 50.19648 | -0.06772 | 26946 ft | 413 kts | 161° |
| 2026-05-03 22:06 | 50.17005 | -0.04986 | 26951 ft | 412 kts | 160° |
| 2026-05-03 22:06 | 50.14384 | -0.03157 | 26945 ft | 413 kts | 160° |
| 2026-05-03 22:07 | 50.11772 | -0.01308 | 26947 ft | 413 kts | 160° |
| 2026-05-03 22:07 | 50.09105 | 0.00308 | 26960 ft | 410 kts | 168° |
| 2026-05-03 22:07 | 50.06336 | 0.01439 | 27289 ft | 411 kts | 170° |
| 2026-05-03 22:07 | 50.03595 | 0.02522 | 27622 ft | 413 kts | 170° |
| 2026-05-03 22:08 | 50.00806 | 0.03622 | 27951 ft | 414 kts | 170° |
| 2026-05-03 22:08 | 49.98009 | 0.04724 | 28273 ft | 415 kts | 170° |
| 2026-05-03 22:08 | 49.95197 | 0.05831 | 28587 ft | 416 kts | 171° |
| 2026-05-03 22:08 | 49.92384 | 0.06935 | 28916 ft | 417 kts | 171° |
| 2026-05-03 22:09 | 49.89564 | 0.08036 | 29228 ft | 418 kts | 171° |
| 2026-05-03 22:09 | 49.86735 | 0.09143 | 29525 ft | 419 kts | 171° |
| 2026-05-03 22:09 | 49.83900 | 0.10250 | 29815 ft | 421 kts | 171° |
| 2026-05-03 22:10 | 49.78210 | 0.12476 | 30295 ft | 423 kts | 171° |
| 2026-05-03 22:10 | 49.75357 | 0.13590 | 30538 ft | 423 kts | 171° |
| 2026-05-03 22:10 | 49.72503 | 0.14705 | 30844 ft | 421 kts | 171° |
| 2026-05-03 22:10 | 49.69669 | 0.15812 | 31159 ft | 420 kts | 171° |
| 2026-05-03 22:11 | 49.66838 | 0.16923 | 31468 ft | 419 kts | 171° |
| 2026-05-03 22:11 | 49.64021 | 0.18046 | 31756 ft | 419 kts | 171° |
| 2026-05-03 22:11 | 49.61206 | 0.19181 | 32054 ft | 418 kts | 171° |
| 2026-05-03 22:11 | 49.58391 | 0.20325 | 32342 ft | 417 kts | 171° |
| 2026-05-03 22:12 | 49.55583 | 0.21461 | 32628 ft | 417 kts | 171° |
| 2026-05-03 22:12 | 49.52783 | 0.22591 | 32926 ft | 416 kts | 171° |
| 2026-05-03 22:12 | 49.49987 | 0.23715 | 33260 ft | 413 kts | 171° |
| 2026-05-03 22:12 | 49.47243 | 0.24814 | 33624 ft | 411 kts | 171° |
| 2026-05-03 22:13 | 49.44448 | 0.25936 | 33923 ft | 410 kts | 171° |
| 2026-05-03 22:13 | 49.41727 | 0.27027 | 34169 ft | 410 kts | 171° |
| 2026-05-03 22:13 | 49.38963 | 0.28133 | 34370 ft | 411 kts | 171° |
| 2026-05-03 22:13 | 49.36191 | 0.29237 | 34556 ft | 412 kts | 171° |
| 2026-05-03 22:14 | 49.33412 | 0.30337 | 34742 ft | 413 kts | 171° |
| 2026-05-03 22:14 | 49.30621 | 0.31444 | 34904 ft | 415 kts | 171° |
| 2026-05-03 22:14 | 49.27836 | 0.32576 | 34958 ft | 415 kts | 170° |
| 2026-05-03 22:15 | 49.22263 | 0.34940 | 34961 ft | 415 kts | 169° |
| 2026-05-03 22:15 | 49.16708 | 0.37325 | 34964 ft | 415 kts | 170° |
| 2026-05-03 22:16 | 49.11138 | 0.39681 | 34957 ft | 414 kts | 170° |
| 2026-05-03 22:16 | 49.05616 | 0.41990 | 34952 ft | 414 kts | 170° |
| 2026-05-03 22:17 | 49.00068 | 0.44308 | 34937 ft | 414 kts | 171° |
| 2026-05-03 22:17 | 48.94503 | 0.46628 | 34962 ft | 413 kts | 171° |
| 2026-05-03 22:18 | 48.88960 | 0.48931 | 34979 ft | 413 kts | 171° |
| 2026-05-03 22:18 | 48.83417 | 0.51228 | 34983 ft | 413 kts | 171° |
| 2026-05-03 22:19 | 48.77872 | 0.53528 | 34988 ft | 413 kts | 171° |
| 2026-05-03 22:19 | 48.72322 | 0.55723 | 34994 ft | 412 kts | 171° |
| 2026-05-03 22:20 | 48.66795 | 0.57849 | 34992 ft | 412 kts | 171° |
| 2026-05-03 22:20 | 48.61240 | 0.60003 | 34981 ft | 412 kts | 171° |
| 2026-05-03 22:21 | 48.56596 | 0.61816 | 34988 ft | 412 kts | 171° |
| 2026-05-03 22:21 | 48.51052 | 0.63977 | 34989 ft | 411 kts | 171° |
| 2026-05-03 22:22 | 48.45558 | 0.66194 | 34991 ft | 412 kts | 171° |
| 2026-05-03 22:22 | 48.40033 | 0.68465 | 34988 ft | 411 kts | 171° |
| 2026-05-03 22:23 | 48.34509 | 0.70722 | 34991 ft | 411 kts | 171° |
| 2026-05-03 22:23 | 48.28976 | 0.72958 | 34993 ft | 411 kts | 171° |
| 2026-05-03 22:24 | 48.23452 | 0.75176 | 34996 ft | 411 kts | 171° |
| 2026-05-03 22:24 | 48.17917 | 0.77360 | 34982 ft | 411 kts | 171° |
| 2026-05-03 22:25 | 48.12390 | 0.79525 | 34987 ft | 411 kts | 171° |
| 2026-05-03 22:25 | 48.06859 | 0.81696 | 34991 ft | 411 kts | 171° |
| 2026-05-03 22:26 | 48.01360 | 0.83851 | 34991 ft | 411 kts | 171° |
| 2026-05-03 22:26 | 47.95817 | 0.86004 | 34965 ft | 412 kts | 172° |
| 2026-05-03 22:27 | 47.90268 | 0.88166 | 34972 ft | 412 kts | 172° |
| 2026-05-03 22:27 | 47.84713 | 0.90327 | 34982 ft | 413 kts | 172° |
| 2026-05-03 22:28 | 47.79150 | 0.92485 | 34971 ft | 413 kts | 172° |
| 2026-05-03 22:28 | 47.73589 | 0.94646 | 34982 ft | 413 kts | 172° |
| 2026-05-03 22:29 | 47.68023 | 0.96798 | 34986 ft | 413 kts | 172° |
| 2026-05-03 22:29 | 47.62456 | 0.98936 | 34989 ft | 413 kts | 172° |
| 2026-05-03 22:30 | 47.56926 | 1.01058 | 34982 ft | 413 kts | 172° |
| 2026-05-03 22:30 | 47.51353 | 1.03202 | 34988 ft | 414 kts | 172° |
| 2026-05-03 22:31 | 47.45776 | 1.05342 | 34992 ft | 414 kts | 172° |
| 2026-05-03 22:31 | 47.40160 | 1.06387 | 34993 ft | 402 kts | 186° |
| 2026-05-03 22:32 | 47.34563 | 1.06235 | 34984 ft | 403 kts | 186° |
| 2026-05-03 22:32 | 47.28943 | 1.06101 | 34986 ft | 404 kts | 186° |
| 2026-05-03 22:33 | 47.23321 | 1.05971 | 34987 ft | 404 kts | 186° |
| 2026-05-03 22:33 | 47.17687 | 1.05843 | 34990 ft | 404 kts | 186° |
| 2026-05-03 22:34 | 47.12093 | 1.05711 | 34984 ft | 405 kts | 186° |
| 2026-05-03 22:34 | 47.06456 | 1.05581 | 34989 ft | 405 kts | 186° |
| 2026-05-03 22:35 | 47.00818 | 1.05450 | 34992 ft | 405 kts | 186° |
| 2026-05-03 22:35 | 46.95173 | 1.05217 | 34997 ft | 405 kts | 186° |
| 2026-05-03 22:36 | 46.89540 | 1.04944 | 34998 ft | 405 kts | 186° |
| 2026-05-03 22:36 | 46.83899 | 1.04687 | 34997 ft | 406 kts | 186° |
| 2026-05-03 22:37 | 46.78284 | 1.04457 | 34995 ft | 406 kts | 186° |
| 2026-05-03 22:37 | 46.72642 | 1.04226 | 34997 ft | 406 kts | 186° |
| 2026-05-03 22:38 | 46.66989 | 1.03984 | 35003 ft | 406 kts | 186° |
| 2026-05-03 22:38 | 46.61335 | 1.03741 | 35005 ft | 406 kts | 186° |
| 2026-05-03 22:39 | 46.55685 | 1.03502 | 34992 ft | 406 kts | 186° |
| 2026-05-03 22:39 | 46.50018 | 1.03875 | 34996 ft | 414 kts | 174° |
| 2026-05-03 22:40 | 46.44379 | 1.05760 | 35007 ft | 416 kts | 173° |
| 2026-05-03 22:40 | 46.38742 | 1.07645 | 35012 ft | 416 kts | 173° |
| 2026-05-03 22:41 | 46.33132 | 1.09512 | 35003 ft | 416 kts | 173° |
| 2026-05-03 22:41 | 46.27492 | 1.11392 | 35010 ft | 416 kts | 173° |
| 2026-05-03 22:42 | 46.21852 | 1.13268 | 35017 ft | 416 kts | 173° |
| 2026-05-03 22:42 | 46.16213 | 1.15132 | 35018 ft | 416 kts | 173° |
| 2026-05-03 22:43 | 46.10570 | 1.16989 | 35029 ft | 415 kts | 173° |
| 2026-05-03 22:43 | 46.04931 | 1.18846 | 35036 ft | 415 kts | 173° |
| 2026-05-03 22:44 | 45.99326 | 1.20697 | 35016 ft | 416 kts | 172° |
| 2026-05-03 22:44 | 45.93682 | 1.22565 | 35005 ft | 417 kts | 172° |
| 2026-05-03 22:45 | 45.88016 | 1.24417 | 35011 ft | 417 kts | 172° |
| 2026-05-03 22:45 | 45.82355 | 1.26268 | 35018 ft | 418 kts | 172° |
| 2026-05-03 22:46 | 45.76675 | 1.28123 | 35018 ft | 418 kts | 172° |
| 2026-05-03 22:46 | 45.70990 | 1.29974 | 35023 ft | 419 kts | 172° |
| 2026-05-03 22:47 | 45.65307 | 1.31830 | 35030 ft | 420 kts | 172° |
| 2026-05-03 22:47 | 45.59603 | 1.33680 | 35033 ft | 420 kts | 172° |
| 2026-05-03 22:48 | 45.53901 | 1.35521 | 35026 ft | 420 kts | 172° |
| 2026-05-03 22:48 | 45.48207 | 1.37367 | 35031 ft | 419 kts | 172° |
| 2026-05-03 22:49 | 45.42556 | 1.39186 | 35033 ft | 419 kts | 172° |
| 2026-05-03 22:49 | 45.36862 | 1.41018 | 35025 ft | 419 kts | 172° |
| 2026-05-03 22:50 | 45.31164 | 1.42852 | 35025 ft | 420 kts | 172° |
| 2026-05-03 22:50 | 45.25470 | 1.44681 | 35023 ft | 420 kts | 172° |
| 2026-05-03 22:51 | 45.19764 | 1.46505 | 35022 ft | 420 kts | 172° |
| 2026-05-03 22:51 | 45.14050 | 1.48325 | 35003 ft | 420 kts | 172° |
| 2026-05-03 22:52 | 45.08372 | 1.50136 | 35004 ft | 421 kts | 172° |
| 2026-05-03 22:52 | 45.02650 | 1.51961 | 35007 ft | 421 kts | 172° |
| 2026-05-03 22:53 | 44.96926 | 1.53770 | 34995 ft | 421 kts | 172° |
| 2026-05-03 22:53 | 44.91207 | 1.55584 | 35018 ft | 421 kts | 172° |
| 2026-05-03 22:54 | 44.85496 | 1.57387 | 35023 ft | 421 kts | 172° |
| 2026-05-03 22:54 | 44.79780 | 1.59184 | 35022 ft | 421 kts | 172° |
| 2026-05-03 22:55 | 44.74107 | 1.60971 | 35015 ft | 420 kts | 172° |
| 2026-05-03 22:55 | 44.68363 | 1.62775 | 35018 ft | 420 kts | 172° |
| 2026-05-03 22:56 | 44.62655 | 1.64565 | 35021 ft | 420 kts | 172° |
| 2026-05-03 22:56 | 44.56980 | 1.66339 | 35005 ft | 420 kts | 172° |
| 2026-05-03 22:57 | 44.51269 | 1.68124 | 35008 ft | 420 kts | 172° |
| 2026-05-03 22:57 | 44.45572 | 1.69907 | 35010 ft | 419 kts | 172° |
| 2026-05-03 22:58 | 44.39876 | 1.71683 | 34987 ft | 419 kts | 172° |
| 2026-05-03 22:58 | 44.34205 | 1.73436 | 34986 ft | 420 kts | 172° |
| 2026-05-03 22:59 | 44.28495 | 1.75175 | 34990 ft | 420 kts | 173° |
| 2026-05-03 22:59 | 44.22743 | 1.76553 | 34995 ft | 418 kts | 176° |
| 2026-05-03 23:00 | 44.16981 | 1.77712 | 34980 ft | 419 kts | 176° |
| 2026-05-03 23:00 | 44.11214 | 1.78917 | 34985 ft | 419 kts | 175° |
| 2026-05-03 23:01 | 44.05442 | 1.80182 | 34992 ft | 420 kts | 175° |
| 2026-05-03 23:01 | 43.99660 | 1.81471 | 34974 ft | 421 kts | 175° |
| 2026-05-03 23:02 | 43.93869 | 1.82681 | 34970 ft | 420 kts | 178° |
| 2026-05-03 23:02 | 43.88085 | 1.83333 | 34974 ft | 419 kts | 181° |
| 2026-05-03 23:03 | 43.82265 | 1.83740 | 34977 ft | 419 kts | 181° |
| 2026-05-03 23:03 | 43.76435 | 1.84221 | 34966 ft | 420 kts | 180° |
| 2026-05-03 23:04 | 43.70599 | 1.84801 | 34965 ft | 420 kts | 180° |
| 2026-05-03 23:04 | 43.64757 | 1.85392 | 34967 ft | 420 kts | 180° |
| 2026-05-03 23:05 | 43.58918 | 1.85959 | 34959 ft | 421 kts | 180° |
| 2026-05-03 23:05 | 43.53064 | 1.86515 | 34962 ft | 422 kts | 180° |
| 2026-05-03 23:06 | 43.47240 | 1.87069 | 34963 ft | 422 kts | 180° |
| 2026-05-03 23:06 | 43.41373 | 1.87631 | 34962 ft | 423 kts | 180° |
| 2026-05-03 23:07 | 43.35493 | 1.88189 | 34964 ft | 424 kts | 180° |
| 2026-05-03 23:07 | 43.29599 | 1.88753 | 34975 ft | 425 kts | 180° |
| 2026-05-03 23:08 | 43.23703 | 1.89321 | 34984 ft | 425 kts | 180° |
| 2026-05-03 23:08 | 43.17787 | 1.89882 | 34978 ft | 425 kts | 180° |
| 2026-05-03 23:09 | 43.11878 | 1.90444 | 34986 ft | 426 kts | 180° |
| 2026-05-03 23:09 | 43.05967 | 1.91009 | 34979 ft | 426 kts | 180° |
| 2026-05-03 23:10 | 43.00052 | 1.91571 | 34976 ft | 426 kts | 180° |
| 2026-05-03 23:10 | 42.94139 | 1.92133 | 34990 ft | 425 kts | 180° |
| 2026-05-03 23:11 | 42.88235 | 1.92691 | 35001 ft | 425 kts | 180° |
| 2026-05-03 23:11 | 42.82350 | 1.93249 | 34995 ft | 424 kts | 180° |
| 2026-05-03 23:12 | 42.77418 | 1.93716 | 34995 ft | 424 kts | 180° |
| 2026-05-03 23:12 | 42.71563 | 1.94267 | 35010 ft | 424 kts | 180° |
| 2026-05-03 23:13 | 42.65667 | 1.94885 | 35009 ft | 425 kts | 178° |
| 2026-05-03 23:13 | 42.59780 | 1.95998 | 35009 ft | 428 kts | 175° |
| 2026-05-03 23:14 | 42.53906 | 1.97324 | 35010 ft | 428 kts | 175° |
| 2026-05-03 23:14 | 42.48013 | 1.98587 | 35019 ft | 428 kts | 175° |
| 2026-05-03 23:15 | 42.42117 | 1.99768 | 35029 ft | 428 kts | 176° |
| 2026-05-03 23:15 | 42.36205 | 2.00918 | 35000 ft | 429 kts | 177° |
| 2026-05-03 23:16 | 42.30269 | 2.01659 | 35013 ft | 428 kts | 180° |
| 2026-05-03 23:16 | 42.24344 | 2.02094 | 35020 ft | 429 kts | 181° |
| 2026-05-03 23:17 | 42.18369 | 2.02557 | 35030 ft | 430 kts | 180° |
| 2026-05-03 23:17 | 42.12387 | 2.03116 | 35015 ft | 432 kts | 180° |
| 2026-05-03 23:18 | 42.06369 | 2.03706 | 35024 ft | 433 kts | 180° |
| 2026-05-03 23:18 | 42.00353 | 2.04285 | 35034 ft | 433 kts | 180° |
| 2026-05-03 23:19 | 41.94330 | 2.04845 | 35025 ft | 434 kts | 180° |
| 2026-05-03 23:19 | 41.88289 | 2.05412 | 35027 ft | 435 kts | 180° |
| 2026-05-03 23:20 | 41.82248 | 2.05985 | 35036 ft | 436 kts | 180° |
| 2026-05-03 23:20 | 41.76197 | 2.06560 | 35047 ft | 436 kts | 180° |
| 2026-05-03 23:21 | 41.70174 | 2.07110 | 35034 ft | 436 kts | 180° |
| 2026-05-03 23:21 | 41.64095 | 2.07669 | 35052 ft | 437 kts | 180° |
| 2026-05-03 23:22 | 41.54989 | 2.08529 | 35057 ft | 437 kts | 180° |
| 2026-05-03 23:22 | 41.48911 | 2.09093 | 35053 ft | 438 kts | 180° |
| 2026-05-03 23:23 | 41.42821 | 2.09644 | 35037 ft | 438 kts | 180° |
| 2026-05-03 23:23 | 41.36781 | 2.10207 | 35039 ft | 438 kts | 180° |
| 2026-05-03 23:24 | 41.30702 | 2.10778 | 35016 ft | 438 kts | 180° |
| 2026-05-03 23:24 | 41.24611 | 2.11634 | 35020 ft | 441 kts | 178° |
| 2026-05-03 23:25 | 41.18515 | 2.12747 | 35024 ft | 442 kts | 177° |
| 2026-05-03 23:25 | 41.12420 | 2.13852 | 35025 ft | 442 kts | 178° |
| 2026-05-03 23:26 | 41.06321 | 2.14889 | 35015 ft | 442 kts | 178° |
| 2026-05-03 23:26 | 41.00211 | 2.15893 | 35019 ft | 442 kts | 178° |
| 2026-05-03 23:27 | 40.94096 | 2.16897 | 35020 ft | 443 kts | 178° |
| 2026-05-03 23:27 | 40.87983 | 2.17909 | 35003 ft | 443 kts | 179° |
| 2026-05-03 23:28 | 40.81859 | 2.18930 | 35017 ft | 443 kts | 179° |
| 2026-05-03 23:28 | 40.75779 | 2.19936 | 35025 ft | 443 kts | 179° |
| 2026-05-03 23:29 | 40.69660 | 2.20947 | 35031 ft | 443 kts | 179° |
| 2026-05-03 23:29 | 40.63546 | 2.21964 | 35034 ft | 443 kts | 179° |
| 2026-05-03 23:30 | 40.57425 | 2.22967 | 35038 ft | 443 kts | 179° |
| 2026-05-03 23:30 | 40.51309 | 2.23972 | 35036 ft | 443 kts | 179° |
| 2026-05-03 23:31 | 40.45186 | 2.24976 | 35016 ft | 443 kts | 179° |
| 2026-05-03 23:31 | 40.39076 | 2.26062 | 35024 ft | 443 kts | 177° |
| 2026-05-03 23:32 | 40.36078 | 2.26787 | 35014 ft | 431 kts | 175° |
| 2026-05-03 23:32 | 40.33172 | 2.27588 | 35012 ft | 424 kts | 174° |
| 2026-05-03 23:32 | 40.27433 | 2.29223 | 35000 ft | 421 kts | 175° |
| 2026-05-03 23:33 | 40.21712 | 2.30756 | 34969 ft | 419 kts | 177° |
| 2026-05-03 23:33 | 40.15988 | 2.32204 | 34969 ft | 418 kts | 177° |
| 2026-05-03 23:34 | 40.10278 | 2.33655 | 34968 ft | 418 kts | 177° |
| 2026-05-03 23:34 | 40.04607 | 2.35118 | 34968 ft | 418 kts | 177° |
| 2026-05-03 23:35 | 39.98897 | 2.36586 | 34947 ft | 418 kts | 178° |
| 2026-05-03 23:35 | 39.93193 | 2.38043 | 34947 ft | 418 kts | 178° |
| 2026-05-03 23:36 | 39.87490 | 2.39496 | 34946 ft | 418 kts | 178° |
| 2026-05-03 23:36 | 39.81776 | 2.40962 | 34642 ft | 420 kts | 178° |
| 2026-05-03 23:37 | 39.78916 | 2.41693 | 34175 ft | 418 kts | 178° |
| 2026-05-03 23:37 | 39.76053 | 2.42267 | 33433 ft | 413 kts | 184° |
| 2026-05-03 23:37 | 39.73202 | 2.42317 | 32715 ft | 406 kts | 191° |
| 2026-05-03 23:37 | 39.70403 | 2.41928 | 32018 ft | 405 kts | 194° |
| 2026-05-03 23:38 | 39.67598 | 2.41487 | 31337 ft | 406 kts | 193° |
| 2026-05-03 23:38 | 39.64798 | 2.41062 | 30665 ft | 403 kts | 192° |
| 2026-05-03 23:38 | 39.62077 | 2.40654 | 30017 ft | 394 kts | 194° |
| 2026-05-03 23:38 | 39.59444 | 2.39908 | 29259 ft | 381 kts | 203° |
| 2026-05-03 23:39 | 39.57025 | 2.38640 | 28522 ft | 369 kts | 211° |
| 2026-05-03 23:39 | 39.54866 | 2.36927 | 27785 ft | 360 kts | 220° |
| 2026-05-03 23:39 | 39.52986 | 2.34851 | 27095 ft | 352 kts | 227° |
| 2026-05-03 23:39 | 39.51391 | 2.32486 | 26412 ft | 346 kts | 235° |
| 2026-05-03 23:40 | 39.50055 | 2.29913 | 25742 ft | 342 kts | 237° |
| 2026-05-03 23:40 | 39.48762 | 2.27353 | 25106 ft | 338 kts | 237° |
| 2026-05-03 23:40 | 39.47471 | 2.24815 | 24465 ft | 335 kts | 237° |
| 2026-05-03 23:40 | 39.46195 | 2.22314 | 23837 ft | 331 kts | 236° |
| 2026-05-03 23:41 | 39.44934 | 2.19843 | 23149 ft | 327 kts | 236° |
| 2026-05-03 23:41 | 39.43690 | 2.17397 | 22435 ft | 323 kts | 237° |
| 2026-05-03 23:41 | 39.42464 | 2.14986 | 21736 ft | 319 kts | 237° |
| 2026-05-03 23:41 | 39.41243 | 2.12589 | 21047 ft | 316 kts | 237° |
| 2026-05-03 23:42 | 39.40057 | 2.10265 | 20386 ft | 312 kts | 237° |
| 2026-05-03 23:42 | 39.38866 | 2.07928 | 19725 ft | 309 kts | 237° |
| 2026-05-03 23:42 | 39.37689 | 2.05620 | 19077 ft | 305 kts | 237° |
| 2026-05-03 23:42 | 39.36533 | 2.03357 | 18547 ft | 297 kts | 237° |
| 2026-05-03 23:43 | 39.35409 | 2.01156 | 17999 ft | 291 kts | 237° |
| 2026-05-03 23:43 | 39.34297 | 1.98987 | 17418 ft | 288 kts | 237° |
| 2026-05-03 23:43 | 39.33199 | 1.96847 | 16830 ft | 284 kts | 238° |
| 2026-05-03 23:43 | 39.32111 | 1.94726 | 16275 ft | 282 kts | 238° |
| 2026-05-03 23:44 | 39.31030 | 1.92622 | 15730 ft | 280 kts | 238° |
| 2026-05-03 23:44 | 39.29954 | 1.90526 | 15202 ft | 279 kts | 238° |
| 2026-05-03 23:44 | 39.28885 | 1.88441 | 14664 ft | 278 kts | 238° |
| 2026-05-03 23:44 | 39.27824 | 1.86372 | 14176 ft | 274 kts | 238° |
| 2026-05-03 23:45 | 39.26787 | 1.84352 | 13694 ft | 266 kts | 238° |
| 2026-05-03 23:45 | 39.25774 | 1.82384 | 13169 ft | 260 kts | 238° |
| 2026-05-03 23:45 | 39.24793 | 1.80478 | 12650 ft | 255 kts | 238° |
| 2026-05-03 23:45 | 39.23819 | 1.78593 | 12148 ft | 250 kts | 238° |
| 2026-05-03 23:46 | 39.22861 | 1.76737 | 11650 ft | 247 kts | 238° |
| 2026-05-03 23:46 | 39.21915 | 1.74904 | 11158 ft | 244 kts | 238° |
| 2026-05-03 23:46 | 39.20984 | 1.73097 | 10674 ft | 241 kts | 238° |
| 2026-05-03 23:46 | 39.20130 | 1.71249 | 10202 ft | 238 kts | 243° |
| 2026-05-03 23:47 | 39.19368 | 1.69365 | 9713 ft | 237 kts | 243° |
| 2026-05-03 23:47 | 39.18600 | 1.67486 | 9179 ft | 236 kts | 243° |
| 2026-05-03 23:47 | 39.17834 | 1.65618 | 8666 ft | 235 kts | 243° |
| 2026-05-03 23:47 | 39.17068 | 1.63753 | 8163 ft | 235 kts | 243° |
| 2026-05-03 23:48 | 39.16307 | 1.61896 | 7669 ft | 234 kts | 243° |
| 2026-05-03 23:48 | 39.15534 | 1.60049 | 7181 ft | 234 kts | 238° |
| 2026-05-03 23:48 | 39.14351 | 1.58660 | 6760 ft | 232 kts | 205° |
| 2026-05-03 23:48 | 39.12790 | 1.58324 | 6527 ft | 231 kts | 174° |
| 2026-05-03 23:49 | 39.11291 | 1.59080 | 6332 ft | 234 kts | 152° |
| 2026-05-03 23:49 | 39.09879 | 1.60112 | 6124 ft | 233 kts | 152° |
| 2026-05-03 23:49 | 39.08669 | 1.61497 | 5922 ft | 235 kts | 125° |
| 2026-05-03 23:49 | 39.08111 | 1.63432 | 5722 ft | 237 kts | 96° |
| 2026-05-03 23:50 | 39.08354 | 1.65524 | 5521 ft | 239 kts | 66° |
| 2026-05-03 23:50 | 39.08863 | 1.66812 | 5377 ft | 240 kts | 62° |
| 2026-05-03 23:50 | 39.09901 | 1.69324 | 5124 ft | 239 kts | 62° |
| 2026-05-03 23:50 | 39.10677 | 1.71202 | 4925 ft | 238 kts | 62° |
| 2026-05-03 23:51 | 39.11450 | 1.73081 | 4734 ft | 237 kts | 63° |
| 2026-05-03 23:51 | 39.12018 | 1.75042 | 4519 ft | 232 kts | 86° |
| 2026-05-03 23:51 | 39.11823 | 1.77068 | 4314 ft | 227 kts | 115° |
| 2026-05-03 23:51 | 39.10918 | 1.78683 | 4163 ft | 222 kts | 144° |
| 2026-05-03 23:52 | 39.09596 | 1.79678 | 4098 ft | 220 kts | 155° |
| 2026-05-03 23:52 | 39.08228 | 1.80584 | 4105 ft | 222 kts | 157° |
| 2026-05-03 23:52 | 39.06757 | 1.81000 | 4103 ft | 216 kts | 187° |
| 2026-05-03 23:52 | 39.05382 | 1.80382 | 4108 ft | 214 kts | 217° |
| 2026-05-03 23:53 | 39.04437 | 1.78933 | 4117 ft | 215 kts | 242° |
| 2026-05-03 23:53 | 39.03727 | 1.77233 | 4116 ft | 214 kts | 240° |
| 2026-05-03 23:53 | 39.03028 | 1.75586 | 4104 ft | 206 kts | 241° |
| 2026-05-03 23:53 | 39.02357 | 1.73960 | 4105 ft | 206 kts | 241° |
| 2026-05-03 23:54 | 39.01691 | 1.72336 | 4109 ft | 204 kts | 242° |
| 2026-05-03 23:54 | 39.01032 | 1.70725 | 4105 ft | 204 kts | 241° |
| 2026-05-03 23:54 | 39.00371 | 1.69111 | 4110 ft | 205 kts | 242° |
| 2026-05-03 23:54 | 38.99705 | 1.67485 | 4108 ft | 205 kts | 241° |
| 2026-05-03 23:55 | 38.99043 | 1.65868 | 4103 ft | 205 kts | 242° |
| 2026-05-03 23:55 | 38.98374 | 1.64238 | 4105 ft | 206 kts | 242° |
| 2026-05-03 23:55 | 38.97709 | 1.62616 | 4019 ft | 205 kts | 242° |
| 2026-05-03 23:55 | 38.97050 | 1.61009 | 3802 ft | 201 kts | 241° |
| 2026-05-03 23:56 | 38.96402 | 1.59432 | 3568 ft | 197 kts | 242° |
| 2026-05-03 23:56 | 38.95771 | 1.57897 | 3309 ft | 192 kts | 241° |
| 2026-05-03 23:56 | 38.95155 | 1.56396 | 3043 ft | 188 kts | 241° |
| 2026-05-03 23:56 | 38.94554 | 1.54936 | 2799 ft | 183 kts | 240° |
| 2026-05-03 23:57 | 38.93961 | 1.53495 | 2561 ft | 180 kts | 241° |
| 2026-05-03 23:57 | 38.93396 | 1.52121 | 2322 ft | 168 kts | 240° |
| 2026-05-03 23:57 | 38.92859 | 1.50817 | 2110 ft | 163 kts | 240° |
| 2026-05-03 23:57 | 38.92508 | 1.49964 | 1976 ft | 161 kts | 240° |
| 2026-05-03 23:58 | 38.91985 | 1.48697 | 1766 ft | 160 kts | 240° |
| 2026-05-03 23:58 | 38.91314 | 1.47068 | 1482 ft | 149 kts | 240° |
| 2026-05-03 23:58 | 38.90842 | 1.45923 | 1287 ft | 141 kts | 240° |
| 2026-05-03 23:58 | 38.90386 | 1.44819 | 1095 ft | 139 kts | 240° |
| 2026-05-03 23:59 | 38.89936 | 1.43729 | 926 ft | 139 kts | 239° |
| 2026-05-03 23:59 | 38.89631 | 1.42987 | 808 ft | 139 kts | 240° |
| 2026-05-03 23:59 | 38.89179 | 1.41895 | 575 ft | 141 kts | 242° |
| 2026-05-03 23:59 | 38.88714 | 1.40783 | 387 ft | 142 kts | 242° |
| 2026-05-04 00:00 | 38.88258 | 1.39658 | 193 ft | 142 kts | 242° |
| 2026-05-04 00:00 | 38.87788 | 1.38537 | 38 ft | 142 kts | 242° |
| 2026-05-04 00:00 | 38.87376 | 1.37539 | 11 ft | 105 kts | 243° |
| 2026-05-04 00:00 | 38.87120 | 1.36912 | 10 ft | 41 kts | 243° |
| 2026-05-04 00:01 | 38.87105 | 1.36758 | 9 ft | 12 kts | 266° |
| 2026-05-04 00:01 | 38.87100 | 1.36641 | 8 ft | 14 kts | 272° |
| 2026-05-04 00:01 | 38.87141 | 1.36555 | 8 ft | 12 kts | 5° |
| 2026-05-04 00:01 | 38.87191 | 1.36628 | 10 ft | 11 kts | 63° |
| 2026-05-04 00:02 | 38.87229 | 1.36724 | 9 ft | 13 kts | 63° |
| 2026-05-04 00:02 | 38.87271 | 1.36825 | 9 ft | 12 kts | 62° |
| 2026-05-04 00:02 | 38.87307 | 1.36856 | 9 ft | 7 kts | 352° |
| 2026-05-04 00:02 | 38.87357 | 1.36827 | 11 ft | 9 kts | 333° |
| 2026-05-04 00:03 | 38.87418 | 1.36788 | 8 ft | 6 kts | 339° |
| 2026-05-04 00:03 | 38.87435 | 1.36813 | 8 ft | 3 kts | 57° |
| 2026-05-04 00:03 | 38.87453 | 1.36846 | 9 ft | 6 kts | 53° |
| 2026-05-04 00:03 | 38.87479 | 1.36898 | 8 ft | 8 kts | 62° |
| 2026-05-04 00:04 | 38.87508 | 1.36969 | 8 ft | 10 kts | 62° |
| 2026-05-04 00:04 | 38.87530 | 1.37020 | 8 ft | 7 kts | 57° |
| 2026-05-04 00:04 | 38.87562 | 1.37016 | 10 ft | 5 kts | 320° |
| 2026-05-04 00:04 | 38.87588 | 1.36994 | 8 ft | 2 kts | 332° |
| 2026-05-04 00:05 | 38.87591 | 1.36993 | 8 ft | 0 kts | 333° |